Time;durP1;ratioP1;P1;durP2;ratioP2;P2;SDS_P1;SDS_P2;PMS_P1;PMS_P2;Temp;Humidity;BMP_temperature;BMP_pressure;BME280_temperature;BME280_humidity;BME280_pressure;Samples;Min_cycle;Max_cycle;Signal;HPM_P1;HPM_P2
2021/06/18 00:01:48;;;;;;;13.25;5.05;;;22.90;99.90;;;;;;6238437;23;20070;-85
2021/06/18 00:04:15;;;;;;;11.15;5.10;;;22.40;99.90;;;;;;6212651;23;20028;-83
2021/06/18 00:06:42;;;;;;;8.15;5.57;;;22.40;99.90;;;;;;6213600;23;20016;-84
2021/06/18 00:09:09;;;;;;;8.23;5.28;;;22.30;99.90;;;;;;6223149;23;20070;-83
2021/06/18 00:11:36;;;;;;;11.70;5.93;;;22.40;99.90;;;;;;6241298;23;20449;-82
2021/06/18 00:14:05;;;;;;;8.52;4.70;;;22.30;99.90;;;;;;6212687;23;20016;-85
2021/06/18 00:16:34;;;;;;;10.67;5.40;;;22.30;99.90;;;;;;6239839;23;20392;-85
2021/06/18 00:19:01;;;;;;;12.48;5.65;;;22.30;99.90;;;;;;6242080;23;20020;-83
2021/06/18 00:21:28;;;;;;;9.40;5.45;;;22.30;99.90;;;;;;6227701;23;20032;-85
2021/06/18 00:23:54;;;;;;;8.90;5.15;;;22.30;99.90;;;;;;6235997;23;20016;-86
2021/06/18 00:26:21;;;;;;;10.45;5.55;;;22.20;99.90;;;;;;6214536;23;20073;-84
2021/06/18 00:28:48;;;;;;;13.73;5.80;;;22.20;99.90;;;;;;6224992;23;20020;-86
2021/06/18 00:31:15;;;;;;;9.48;5.32;;;22.50;99.90;;;;;;6238158;23;20093;-85
2021/06/18 00:33:43;;;;;;;10.32;5.75;;;22.00;99.90;;;;;;6214700;23;20072;-83
2021/06/18 00:36:10;;;;;;;9.45;5.07;;;22.00;99.90;;;;;;6213948;23;20020;-84
2021/06/18 00:38:37;;;;;;;10.77;5.03;;;22.10;99.90;;;;;;6185249;23;20318;-82
2021/06/18 00:41:04;;;;;;;9.30;5.20;;;21.90;99.90;;;;;;6184170;23;20012;-83
2021/06/18 00:43:31;;;;;;;8.00;4.85;;;22.00;99.90;;;;;;6180633;23;20083;-82
2021/06/18 00:45:58;;;;;;;8.93;4.53;;;21.90;99.90;;;;;;6183939;23;20410;-85
2021/06/18 00:48:26;;;;;;;7.68;4.07;;;22.00;99.90;;;;;;6184538;23;20028;-85
2021/06/18 00:50:54;;;;;;;6.43;4.85;;;21.90;99.90;;;;;;6193344;23;20067;-84
2021/06/18 00:53:21;;;;;;;9.63;5.32;;;21.90;99.90;;;;;;6185134;23;20027;-84
2021/06/18 00:55:49;;;;;;;11.85;5.55;;;21.90;99.90;;;;;;6183506;23;20028;-83
2021/06/18 00:58:16;;;;;;;8.52;5.60;;;21.90;99.90;;;;;;6184135;23;20446;-85
2021/06/18 01:00:44;;;;;;;12.00;6.25;;;21.90;99.90;;;;;;6194575;23;20442;-83
2021/06/18 01:03:12;;;;;;;11.48;6.05;;;21.90;99.90;;;;;;6184048;23;20020;-84
2021/06/18 01:05:40;;;;;;;8.55;5.00;;;21.90;99.90;;;;;;6183136;23;20017;-83
2021/06/18 01:08:16;;;;;;;6.80;5.15;;;21.90;99.90;;;;;;6184055;23;20422;-84
2021/06/18 01:10:49;;;;;;;11.52;5.30;;;21.90;99.90;;;;;;6184471;23;20415;-83
2021/06/18 01:13:37;;;;;;;9.27;5.63;;;21.90;99.90;;;;;;6183456;23;20024;-83
2021/06/18 01:16:08;;;;;;;6.82;4.65;;;21.90;99.90;;;;;;6183643;23;20501;-84
2021/06/18 01:18:39;;;;;;;10.38;4.93;;;22.50;99.90;;;;;;6184853;23;20013;-84
2021/06/18 01:21:15;;;;;;;6.75;4.70;;;22.00;99.90;;;;;;6183614;23;20454;-82
2021/06/18 01:23:58;;;;;;;7.75;4.70;;;23.10;99.90;;;;;;6206504;23;20020;-82
2021/06/18 01:26:43;;;;;;;7.30;4.47;;;22.00;99.90;;;;;;6184328;23;20354;-83
2021/06/18 01:29:12;;;;;;;10.02;5.53;;;21.80;99.90;;;;;;6155936;23;20024;-80
2021/06/18 01:31:41;;;;;;;9.45;5.70;;;21.80;99.90;;;;;;6182464;23;20470;-85
2021/06/18 01:34:11;;;;;;;;;;;21.70;99.90;;;;;;6185354;23;20024;-84
2021/06/18 01:36:40;;;;;;;8.05;4.53;;;21.80;99.90;;;;;;6181760;23;20395;-84
2021/06/18 01:39:08;;;;;;;7.50;5.70;;;21.80;99.90;;;;;;6207898;23;20020;-84
2021/06/18 01:41:35;;;;;;;11.38;5.15;;;21.80;99.90;;;;;;6184586;23;20024;-85
2021/06/18 01:44:03;;;;;;;7.75;4.60;;;21.80;99.90;;;;;;6183002;23;20016;-83
2021/06/18 01:46:36;;;;;;;7.32;5.25;;;21.70;99.90;;;;;;6182361;23;20063;-83
2021/06/18 01:49:07;;;;;;;9.02;6.50;;;21.80;99.90;;;;;;6209617;23;20096;-86
2021/06/18 01:51:34;;;;;;;9.48;5.18;;;21.80;99.90;;;;;;6184234;23;20071;-82
2021/06/18 01:54:03;;;;;;;8.90;5.63;;;22.30;99.90;;;;;;6209144;23;20020;-85
2021/06/18 01:56:33;;;;;;;8.90;5.83;;;21.80;99.90;;;;;;6159122;23;20024;-85
2021/06/18 01:59:02;;;;;;;10.82;6.10;;;21.70;99.90;;;;;;6182927;23;20028;-85
2021/06/18 02:01:34;;;;;;;10.60;6.88;;;21.70;99.90;;;;;;6184537;23;20484;-85
2021/06/18 02:04:03;;;;;;;9.10;6.28;;;21.70;99.90;;;;;;6183186;23;20020;-84
2021/06/18 02:06:31;;;;;;;10.05;5.00;;;21.60;99.90;;;;;;6184151;23;20020;-85
2021/06/18 02:09:00;;;;;;;8.02;5.63;;;21.60;99.90;;;;;;6210249;23;20066;-85
2021/06/18 02:11:28;;;;;;;7.95;5.43;;;21.70;99.90;;;;;;6185278;23;20013;-85
2021/06/18 02:13:56;;;;;;;9.30;6.40;;;21.70;99.90;;;;;;6183956;23;20017;-85
2021/06/18 02:16:26;;;;;;;9.38;5.97;;;21.60;99.90;;;;;;6207164;23;20047;-84
2021/06/18 02:18:56;;;;;;;8.43;5.47;;;21.60;99.90;;;;;;6158862;23;20074;-86
2021/06/18 02:21:24;;;;;;;9.60;5.85;;;21.60;99.90;;;;;;6185024;23;20071;-83
2021/06/18 02:23:52;;;;;;;9.23;6.15;;;21.60;99.90;;;;;;6195132;23;20449;-85
2021/06/18 02:26:23;;;;;;;8.52;6.10;;;21.50;99.90;;;;;;6183445;23;20397;-85
2021/06/18 02:28:51;;;;;;;12.15;5.93;;;21.50;99.90;;;;;;6186334;23;20090;-86
2021/06/18 02:31:20;;;;;;;9.50;5.97;;;21.50;99.90;;;;;;6185192;23;20144;-84
2021/06/18 02:33:48;;;;;;;8.25;6.25;;;21.50;99.90;;;;;;6185742;23;20016;-84
2021/06/18 02:36:17;;;;;;;8.23;5.85;;;21.50;99.90;;;;;;6186822;23;20397;-83
2021/06/18 02:38:45;;;;;;;11.23;6.55;;;21.80;99.90;;;;;;6186194;23;20016;-85
2021/06/18 02:41:12;;;;;;;9.77;6.50;;;21.40;99.90;;;;;;6186341;23;20442;-83
2021/06/18 02:43:39;;;;;;;9.10;6.68;;;21.30;99.90;;;;;;6185076;23;20028;-85
2021/06/18 02:46:06;;;;;;;9.63;6.63;;;21.20;99.90;;;;;;6185829;23;20021;-82
2021/06/18 02:48:41;;;;;;;10.55;6.97;;;21.20;99.90;;;;;;6186288;23;20083;-84
2021/06/18 02:51:15;;;;;;;10.75;7.32;;;21.20;99.90;;;;;;6186524;23;20012;-83
2021/06/18 02:53:49;;;;;;;10.18;6.68;;;21.20;99.90;;;;;;6186205;23;20021;-84
2021/06/18 02:56:22;;;;;;;12.68;7.50;;;21.10;99.90;;;;;;6186873;23;20022;-83
2021/06/18 02:58:53;;;;;;;10.02;7.50;;;21.00;99.90;;;;;;6186797;23;20405;-84
2021/06/18 03:01:23;;;;;;;14.70;6.60;;;21.00;99.90;;;;;;6184947;23;20129;-85
2021/06/18 03:03:54;;;;;;;11.15;6.45;;;21.00;99.90;;;;;;6185819;23;20059;-85
2021/06/18 03:06:21;;;;;;;10.68;6.53;;;21.00;99.90;;;;;;6185938;23;20016;-84
2021/06/18 03:08:56;;;;;;;13.63;7.32;;;21.00;99.90;;;;;;6186601;23;20328;-85
2021/06/18 03:11:27;;;;;;;11.57;7.40;;;21.00;99.90;;;;;;6212012;23;20017;-83
2021/06/18 03:13:55;;;;;;;10.43;7.22;;;20.90;99.90;;;;;;6186053;23;20021;-85
2021/06/18 03:16:23;;;;;;;11.45;7.03;;;20.90;99.90;;;;;;6186051;23;20394;-85
2021/06/18 03:18:53;;;;;;;12.20;7.93;;;20.90;99.90;;;;;;6185503;23;20024;-84
2021/06/18 03:21:21;;;;;;;15.23;7.93;;;20.80;99.90;;;;;;6185422;23;20034;-84
2021/06/18 03:23:49;;;;;;;17.48;7.30;;;20.80;99.90;;;;;;6186248;23;20020;-83
2021/06/18 03:26:17;;;;;;;10.27;7.80;;;20.80;99.90;;;;;;6185680;23;20017;-85
2021/06/18 03:28:46;;;;;;;11.82;6.70;;;20.80;99.90;;;;;;6187326;23;20020;-85
2021/06/18 03:31:16;;;;;;;12.40;7.95;;;20.90;99.90;;;;;;6183458;23;20017;-83
2021/06/18 03:33:44;;;;;;;11.77;7.75;;;20.90;99.90;;;;;;6195831;23;20075;-84
2021/06/18 03:36:13;;;;;;;9.85;7.03;;;20.90;99.90;;;;;;6185045;23;20020;-86
2021/06/18 03:38:43;;;;;;;9.40;7.03;;;20.90;99.90;;;;;;6186009;23;20481;-84
2021/06/18 03:41:10;;;;;;;12.48;7.40;;;20.90;99.90;;;;;;6184961;23;20055;-83
2021/06/18 03:43:39;;;;;;;8.50;7.13;;;21.00;99.90;;;;;;6185344;23;20027;-83
2021/06/18 03:46:08;;;;;;;10.95;6.82;;;20.90;99.90;;;;;;6184645;23;20513;-84
2021/06/18 03:48:37;;;;;;;11.40;7.10;;;20.90;99.90;;;;;;6183211;23;20082;-82
2021/06/18 03:51:06;;;;;;;10.35;6.10;;;20.90;99.90;;;;;;6183820;23;20032;-85
2021/06/18 03:53:33;;;;;;;12.65;7.00;;;20.90;99.90;;;;;;6160783;23;20377;-84
2021/06/18 03:56:00;;;;;;;10.93;6.88;;;21.00;99.90;;;;;;6184317;23;20029;-83
2021/06/18 03:58:29;;;;;;;12.02;6.63;;;20.90;99.90;;;;;;6186229;23;20017;-85
2021/06/18 04:00:58;;;;;;;9.33;5.97;;;21.00;99.90;;;;;;6181692;23;20013;-85
2021/06/18 04:03:27;;;;;;;10.70;6.03;;;20.90;99.90;;;;;;6184778;23;20615;-84
2021/06/18 04:05:59;;;;;;;7.93;5.43;;;21.50;99.90;;;;;;6184424;23;20017;-82
2021/06/18 04:08:27;;;;;;;9.32;5.72;;;21.00;99.90;;;;;;6187155;23;20493;-84
2021/06/18 04:10:54;;;;;;;8.68;5.82;;;21.00;99.90;;;;;;6183057;23;20079;-86
2021/06/18 04:13:22;;;;;;;9.50;5.95;;;21.00;99.90;;;;;;6184555;23;20031;-85
2021/06/18 04:15:50;;;;;;;9.73;5.88;;;21.00;99.90;;;;;;6183513;23;20339;-83
2021/06/18 04:18:21;;;;;;;7.88;5.15;;;21.00;99.90;;;;;;6186550;23;20012;-85
2021/06/18 04:20:49;;;;;;;9.55;5.57;;;21.00;99.90;;;;;;6182915;23;20017;-84
2021/06/18 04:23:16;;;;;;;11.38;5.55;;;20.90;99.90;;;;;;6184713;23;20020;-85
2021/06/18 04:25:43;;;;;;;8.85;5.30;;;21.50;99.90;;;;;;6185341;23;20028;-86
2021/06/18 04:28:10;;;;;;;8.80;5.50;;;21.00;99.90;;;;;;6184662;23;20416;-84
2021/06/18 04:30:37;;;;;;;9.70;5.65;;;21.00;99.90;;;;;;6182680;23;20016;-82
2021/06/18 04:33:04;;;;;;;9.57;5.30;;;21.10;99.90;;;;;;6180875;23;20346;-85
2021/06/18 04:35:33;;;;;;;9.00;5.72;;;21.10;99.90;;;;;;6184456;23;20025;-85
2021/06/18 04:38:00;;;;;;;8.80;5.30;;;21.10;99.90;;;;;;6184755;23;20477;-80
2021/06/18 04:40:27;;;;;;;10.27;7.00;;;21.10;99.90;;;;;;6208525;23;20017;-84
2021/06/18 04:42:54;;;;;;;9.10;6.88;;;22.10;99.90;;;;;;6186543;23;20071;-85
2021/06/18 04:45:21;;;;;;;10.23;6.22;;;21.10;99.90;;;;;;6185600;23;20393;-86
2021/06/18 04:47:48;;;;;;;9.02;5.63;;;21.20;99.90;;;;;;6185923;23;20087;-83
2021/06/18 04:50:15;;;;;;;8.25;5.88;;;21.10;99.90;;;;;;6207863;23;20074;-82
2021/06/18 04:52:46;;;;;;;8.63;6.30;;;21.20;99.90;;;;;;6186920;23;20447;-85
2021/06/18 04:55:17;;;;;;;11.07;7.22;;;21.20;99.90;;;;;;6185457;23;20016;-83
2021/06/18 04:57:46;;;;;;;10.20;6.30;;;21.20;99.90;;;;;;6186660;23;20091;-83
2021/06/18 05:00:14;;;;;;;9.93;7.60;;;21.20;99.90;;;;;;6182741;23;20099;-84
2021/06/18 05:02:42;;;;;;;11.43;7.20;;;21.10;99.90;;;;;;6186464;23;20023;-84
2021/06/18 05:05:09;;;;;;;8.50;6.53;;;21.20;99.90;;;;;;6184561;23;20012;-86
2021/06/18 05:07:36;;;;;;;12.85;7.88;;;21.30;99.90;;;;;;6221290;23;20078;-85
2021/06/18 05:10:06;;;;;;;13.93;7.63;;;21.30;99.90;;;;;;6185269;23;20024;-86
2021/06/18 05:12:32;;;;;;;13.02;8.57;;;21.10;99.90;;;;;;6210457;23;20124;-84
2021/06/18 05:14:59;;;;;;;12.43;8.05;;;21.10;99.90;;;;;;6195713;23;20080;-86
2021/06/18 05:17:26;;;;;;;12.05;7.20;;;21.10;99.90;;;;;;6183853;23;20043;-84
2021/06/18 05:19:53;;;;;;;11.40;6.50;;;21.20;99.90;;;;;;6210487;23;20016;-84
2021/06/18 05:22:20;;;;;;;11.18;6.90;;;21.30;99.90;;;;;;6210707;23;20017;-82
2021/06/18 05:24:47;;;;;;;8.23;6.03;;;21.40;99.90;;;;;;6183629;23;20031;-86
2021/06/18 05:27:15;;;;;;;12.35;7.20;;;21.90;99.90;;;;;;6184709;23;20405;-84
2021/06/18 05:29:42;;;;;;;11.30;7.82;;;21.60;99.90;;;;;;6209044;23;20016;-86
2021/06/18 05:32:09;;;;;;;9.40;6.68;;;21.50;99.90;;;;;;6184254;23;20082;-86
2021/06/18 05:34:36;;;;;;;13.32;7.10;;;21.60;99.90;;;;;;6184825;23;20104;-84
2021/06/18 05:37:03;;;;;;;11.23;7.45;;;21.60;99.90;;;;;;6197368;23;20024;-86
2021/06/18 05:39:30;;;;;;;13.70;6.43;;;21.70;99.90;;;;;;6217603;23;20016;-85
2021/06/18 05:41:57;;;;;;;11.65;7.28;;;21.70;99.90;;;;;;6217185;23;20012;-86
2021/06/18 05:44:25;;;;;;;11.63;7.50;;;21.70;99.90;;;;;;6242157;23;20073;-83
2021/06/18 05:46:52;;;;;;;11.15;6.53;;;21.80;99.90;;;;;;6241404;23;20019;-83
2021/06/18 05:49:19;;;;;;;11.27;6.93;;;21.90;99.90;;;;;;6241599;23;20023;-85
2021/06/18 05:51:46;;;;;;;13.20;7.13;;;21.90;99.90;;;;;;6242064;23;20074;-83
2021/06/18 05:54:14;;;;;;;12.05;6.88;;;22.00;99.90;;;;;;6217294;23;20020;-86
2021/06/18 05:56:41;;;;;;;9.10;6.20;;;22.00;99.90;;;;;;6216069;23;20016;-84
2021/06/18 05:59:08;;;;;;;10.35;6.53;;;22.10;99.90;;;;;;6217062;23;20020;-84
2021/06/18 06:01:36;;;;;;;9.48;5.78;;;22.10;99.90;;;;;;6215755;23;20016;-84
2021/06/18 06:04:03;;;;;;;9.90;6.47;;;22.10;99.90;;;;;;6216599;23;20095;-84
2021/06/18 06:06:30;;;;;;;9.48;6.00;;;22.20;99.90;;;;;;6215597;23;20082;-81
2021/06/18 06:08:57;;;;;;;9.00;5.45;;;22.20;99.90;;;;;;6215050;23;20020;-84
2021/06/18 06:11:25;;;;;;;10.13;5.38;;;22.30;99.90;;;;;;6242908;23;20074;-84
2021/06/18 06:14:03;;;;;;;11.23;5.55;;;22.40;99.90;;;;;;6218263;23;20024;-84
2021/06/18 06:16:33;;;;;;;8.60;6.50;;;22.40;99.90;;;;;;6243593;23;20389;-84
2021/06/18 06:19:02;;;;;;;11.25;6.90;;;22.40;99.90;;;;;;6218062;23;20016;-82
2021/06/18 06:21:29;;;;;;;13.68;6.82;;;22.30;99.90;;;;;;6241971;23;20023;-86
2021/06/18 06:23:56;;;;;;;8.80;5.88;;;22.40;99.90;;;;;;6218467;23;20024;-84
2021/06/18 06:26:23;;;;;;;8.57;5.50;;;22.40;99.90;;;;;;6217812;23;20078;-84
2021/06/18 06:28:50;;;;;;;10.07;6.50;;;22.50;99.90;;;;;;6219056;23;20024;-86
2021/06/18 06:31:17;;;;;;;8.40;5.85;;;22.50;99.90;;;;;;6218959;23;20020;-84
2021/06/18 06:33:44;;;;;;;9.10;6.03;;;22.60;99.90;;;;;;6217968;23;20039;-85
2021/06/18 06:36:12;;;;;;;10.68;5.65;;;22.60;99.90;;;;;;6217430;23;20016;-85
2021/06/18 06:38:39;;;;;;;10.10;5.57;;;22.70;99.90;;;;;;6184591;23;20028;-81
2021/06/18 06:41:07;;;;;;;9.13;5.50;;;22.80;99.90;;;;;;6186871;23;20025;-84
2021/06/18 06:43:34;;;;;;;10.32;5.72;;;22.90;99.90;;;;;;6185851;23;20025;-84
2021/06/18 06:46:01;;;;;;;7.80;5.35;;;23.00;99.90;;;;;;6184745;23;20017;-86
2021/06/18 06:48:27;;;;;;;10.63;5.97;;;23.10;99.90;;;;;;6185814;23;20021;-82
2021/06/18 06:50:54;;;;;;;9.43;5.60;;;23.10;99.90;;;;;;6185304;23;20035;-79
2021/06/18 06:53:23;;;;;;;9.68;6.03;;;23.30;99.90;;;;;;6183404;23;20095;-86
2021/06/18 06:55:50;;;;;;;8.80;5.82;;;23.20;99.90;;;;;;6209820;23;20569;-82
2021/06/18 06:58:17;;;;;;;7.93;5.30;;;24.80;99.90;;;;;;6188166;23;20025;-86
2021/06/18 07:00:44;;;;;;;8.63;4.78;;;23.40;99.90;;;;;;6187646;23;20104;-85
2021/06/18 07:03:11;;;;;;;10.50;6.28;;;23.50;99.90;;;;;;6194984;23;20066;-85
2021/06/18 07:05:40;;;;;;;8.57;5.40;;;23.60;99.90;;;;;;6195981;23;20084;-85
2021/06/18 07:08:15;;;;;;;9.88;5.53;;;23.70;99.90;;;;;;6183512;23;20020;-82
2021/06/18 07:10:43;;;;;;;11.45;5.55;;;23.80;99.90;;;;;;6185261;23;20051;-85
2021/06/18 07:13:10;;;;;;;7.57;5.47;;;23.80;99.90;;;;;;6184465;23;20020;-85
2021/06/18 07:15:37;;;;;;;11.00;6.53;;;23.70;99.90;;;;;;6185322;23;20078;-85
2021/06/18 07:18:04;;;;;;;10.32;5.88;;;23.70;99.90;;;;;;6190339;23;20052;-84
2021/06/18 07:20:31;;;;;;;9.35;5.65;;;23.60;99.90;;;;;;6183018;23;20028;-83
2021/06/18 07:22:58;;;;;;;8.75;5.45;;;23.60;99.90;;;;;;6184394;23;20086;-86
2021/06/18 07:25:25;;;;;;;10.65;5.68;;;23.70;99.90;;;;;;6184841;23;20476;-85
2021/06/18 07:27:53;;;;;;;9.65;6.20;;;23.80;99.90;;;;;;6183635;23;20031;-84
2021/06/18 07:30:22;;;;;;;7.82;5.57;;;23.90;99.90;;;;;;6183198;23;20017;-83
2021/06/18 07:32:50;;;;;;;8.48;6.18;;;24.00;99.90;;;;;;6180094;23;20013;-85
2021/06/18 07:35:17;;;;;;;11.98;6.15;;;24.00;99.90;;;;;;6186178;23;20135;-84
2021/06/18 07:37:45;;;;;;;9.65;5.88;;;24.00;99.90;;;;;;6215477;23;20009;-86
2021/06/18 07:40:13;;;;;;;9.65;5.50;;;24.50;99.90;;;;;;6184310;23;20028;-86
2021/06/18 07:42:41;;;;;;;9.32;5.07;;;24.10;99.90;;;;;;6185135;23;20036;-85
2021/06/18 07:45:11;;;;;;;9.18;5.30;;;24.30;99.90;;;;;;6184915;23;20016;-84
2021/06/18 07:47:39;;;;;;;11.93;6.07;;;24.40;99.90;;;;;;6210060;23;20078;-83
2021/06/18 07:50:08;;;;;;;8.88;5.75;;;24.40;99.90;;;;;;6187282;23;20022;-85
2021/06/18 07:52:35;;;;;;;10.45;6.07;;;24.40;99.90;;;;;;6159414;23;20017;-82
2021/06/18 07:55:02;;;;;;;8.88;5.43;;;24.40;99.90;;;;;;6183413;23;20017;-85
2021/06/18 07:57:29;;;;;;;10.90;5.28;;;24.50;99.90;;;;;;6183408;23;20023;-85
2021/06/18 07:59:56;;;;;;;6.40;4.68;;;24.70;99.90;;;;;;6183817;23;20020;-85
2021/06/18 08:02:24;;;;;;;9.68;6.03;;;24.80;99.90;;;;;;6184222;23;20020;-85
2021/06/18 08:04:52;;;;;;;9.23;5.57;;;24.90;99.90;;;;;;6183583;23;20055;-83
2021/06/18 08:07:19;;;;;;;10.43;5.72;;;24.90;99.90;;;;;;6183578;23;20071;-85
2021/06/18 08:09:46;;;;;;;6.57;4.80;;;25.00;99.90;;;;;;6184119;23;20276;-85
2021/06/18 08:12:13;;;;;;;10.15;5.85;;;25.10;99.90;;;;;;6183974;23;20020;-83
2021/06/18 08:14:40;;;;;;;8.65;6.15;;;25.30;99.90;;;;;;6183703;23;20379;-84
2021/06/18 08:17:07;;;;;;;9.88;5.47;;;25.20;99.90;;;;;;6183757;23;20021;-82
2021/06/18 08:19:35;;;;;;;7.60;4.95;;;25.10;99.90;;;;;;6183609;23;20021;-83
2021/06/18 08:22:03;;;;;;;8.43;5.53;;;25.30;99.90;;;;;;6183069;23;20070;-83
2021/06/18 08:24:30;;;;;;;9.82;5.72;;;25.40;99.90;;;;;;6183925;23;20017;-84
2021/06/18 08:26:57;;;;;;;8.70;5.35;;;25.50;99.90;;;;;;6182907;23;20253;-82
2021/06/18 08:29:24;;;;;;;9.50;5.95;;;25.60;99.90;;;;;;6183375;23;20446;-85
2021/06/18 08:31:51;;;;;;;7.57;5.80;;;26.60;99.90;;;;;;6181925;23;20028;-81
2021/06/18 08:34:18;;;;;;;9.52;5.80;;;25.70;99.90;;;;;;6183269;23;20016;-84
2021/06/18 08:36:46;;;;;;;8.85;5.20;;;25.80;99.90;;;;;;6182860;23;20090;-84
2021/06/18 08:39:14;;;;;;;9.20;5.90;;;25.90;99.90;;;;;;6183033;23;20079;-86
2021/06/18 08:41:41;;;;;;;8.82;6.10;;;25.90;99.90;;;;;;6184475;23;20070;-84
2021/06/18 08:44:08;;;;;;;10.02;5.75;;;25.90;99.90;;;;;;6182847;23;20446;-85
2021/06/18 08:46:35;;;;;;;9.82;5.75;;;26.10;99.90;;;;;;6181793;23;20087;-85
2021/06/18 08:49:02;;;;;;;9.68;6.25;;;26.90;99.90;;;;;;6182443;23;20023;-86
2021/06/18 08:51:30;;;;;;;10.02;6.30;;;26.30;99.90;;;;;;6181791;23;20409;-86
2021/06/18 08:53:58;;;;;;;9.00;5.95;;;26.30;99.90;;;;;;6182897;23;20008;-84
2021/06/18 08:56:25;;;;;;;10.32;6.40;;;27.60;99.90;;;;;;6183805;23;20078;-83
2021/06/18 08:58:53;;;;;;;10.82;5.53;;;26.20;99.90;;;;;;6182313;23;20087;-86
2021/06/18 09:01:20;;;;;;;10.15;6.18;;;26.30;99.90;;;;;;6210540;23;20079;-85
2021/06/18 09:03:48;;;;;;;10.45;5.95;;;28.10;99.90;;;;;;6182173;23;20059;-84
2021/06/18 09:06:29;;;;;;;10.70;6.23;;;26.60;99.90;;;;;;6182716;23;20028;-84
2021/06/18 09:09:13;;;;;;;7.65;5.80;;;26.70;99.90;;;;;;6182948;23;20028;-84
2021/06/18 09:11:43;;;;;;;10.40;6.28;;;26.80;99.90;;;;;;6206169;23;20071;-85
2021/06/18 09:14:15;;;;;;;8.43;6.03;;;26.80;99.90;;;;;;6182657;23;20071;-84
2021/06/18 09:16:42;;;;;;;7.80;5.25;;;26.80;99.90;;;;;;6182222;23;20508;-82
2021/06/18 09:19:24;;;;;;;8.73;5.80;;;26.90;99.90;;;;;;6183400;23;20091;-85
2021/06/18 09:21:58;;;;;;;8.75;6.28;;;27.10;99.90;;;;;;6182418;23;20437;-85
2021/06/18 09:24:31;;;;;;;8.07;6.05;;;27.10;99.90;;;;;;6209638;23;20349;-84
2021/06/18 09:26:58;;;;;;;10.20;6.18;;;27.10;99.90;;;;;;6182542;23;20074;-85
2021/06/18 09:29:26;;;;;;;8.40;6.03;;;27.20;99.90;;;;;;6193656;23;20082;-86
2021/06/18 09:31:56;;;;;;;8.05;6.22;;;27.20;99.90;;;;;;6183106;23;20022;-86
2021/06/18 09:37:19;;;;;;;15.27;6.80;;;27.30;99.90;;;;;;6209272;23;20048;-84
2021/06/18 09:40:04;;;;;;;10.50;5.72;;;27.30;99.90;;;;;;6182959;23;20020;-83
2021/06/18 09:42:33;;;;;;;10.73;6.25;;;27.40;99.90;;;;;;6183830;23;20489;-84
2021/06/18 09:45:03;;;;;;;13.27;5.93;;;27.50;99.90;;;;;;6180414;23;20032;-85
2021/06/18 09:47:31;;;;;;;10.82;6.28;;;27.60;99.90;;;;;;6181601;23;20667;-85
2021/06/18 09:49:58;;;;;;;7.97;5.60;;;27.50;99.90;;;;;;6184708;23;20071;-85
2021/06/18 09:52:26;;;;;;;9.00;5.65;;;27.70;99.90;;;;;;6184781;23;20013;-85
2021/06/18 09:54:53;;;;;;;11.02;6.00;;;27.70;99.80;;;;;;6184224;23;20520;-83
2021/06/18 09:57:24;;;;;;;8.73;5.50;;;27.70;99.40;;;;;;6208439;23;20015;-85
2021/06/18 09:59:57;;;;;;;9.10;6.20;;;27.80;99.50;;;;;;6183230;23;20063;-80
2021/06/18 10:02:38;;;;;;;9.15;5.82;;;27.80;99.90;;;;;;6207982;23;20013;-85
2021/06/18 10:05:08;;;;;;;6.85;5.30;;;28.00;99.90;;;;;;6179872;23;20083;-83
2021/06/18 10:07:35;;;;;;;7.25;5.57;;;28.10;99.90;;;;;;6210420;23;20024;-87
2021/06/18 10:10:06;;;;;;;8.40;5.50;;;28.30;99.90;;;;;;6182777;23;20024;-85
2021/06/18 10:12:34;;;;;;;10.18;5.97;;;28.40;99.80;;;;;;6181790;23;20012;-86
2021/06/18 10:15:06;;;;;;;11.88;6.40;;;28.50;99.40;;;;;;6183635;23;20043;-86
2021/06/18 10:17:35;;;;;;;9.30;6.22;;;28.40;99.00;;;;;;6180955;23;20017;-86
2021/06/18 10:20:05;;;;;;;9.68;6.00;;;28.50;98.60;;;;;;6181474;23;20013;-83
2021/06/18 10:22:34;;;;;;;9.30;6.25;;;28.30;99.30;;;;;;6179317;23;20009;-86
2021/06/18 10:25:07;;;;;;;;;;;28.40;99.80;;;;;;6182086;23;20055;-86
2021/06/18 10:27:43;;;;;;;8.70;5.50;;;28.50;99.00;;;;;;6180339;23;19970;-87
2021/06/18 10:30:28;;;;;;;10.85;6.60;;;28.50;98.60;;;;;;6206704;23;20028;-84
2021/06/18 10:32:56;;;;;;;12.88;6.28;;;28.50;99.10;;;;;;6207041;23;20324;-83
2021/06/18 10:36:03;;;;;;;8.85;6.32;;;28.50;98.90;;;;;;6181042;23;20025;-83
2021/06/18 10:38:32;;;;;;;9.15;6.30;;;28.70;98.40;;;;;;6123366;23;20025;-86
2021/06/18 10:41:01;;;;;;;13.55;6.85;;;28.70;99.80;;;;;;6183243;23;20024;-85
2021/06/18 10:43:38;;;;;;;9.88;5.97;;;28.80;99.20;;;;;;6208952;23;20013;-84
2021/06/18 10:46:16;;;;;;;11.48;6.18;;;28.80;98.90;;;;;;6183167;23;20024;-86
2021/06/18 10:49:04;;;;;;;9.75;7.07;;;29.00;98.70;;;;;;6184291;23;20027;-84
2021/06/18 10:51:33;;;;;;;11.88;6.45;;;28.90;98.20;;;;;;6179966;23;20017;-86
2021/06/18 10:54:03;;;;;;;12.88;6.70;;;28.90;98.60;;;;;;6183027;23;20016;-83
2021/06/18 10:57:02;;;;;;;12.20;7.25;;;28.90;99.10;;;;;;6183059;23;20074;-87
2021/06/18 10:59:33;;;;;;;10.15;6.75;;;28.90;98.20;;;;;;6182810;23;20078;-85
2021/06/18 11:02:02;;;;;;;10.57;6.75;;;29.10;97.80;;;;;;6210668;23;20086;-84
2021/06/18 11:04:37;;;;;;;7.40;5.60;;;29.10;97.00;;;;;;6182268;23;20210;-82
2021/06/18 11:07:21;;;;;;;8.27;5.88;;;29.10;97.40;;;;;;6183203;23;20020;-85
2021/06/18 11:09:49;;;;;;;10.57;6.97;;;29.30;97.10;;;;;;6184424;23;20078;-86
2021/06/18 11:12:36;;;;;;;12.18;6.40;;;29.30;96.40;;;;;;6182376;23;20853;-86
2021/06/18 11:15:08;;;;;;;8.75;6.28;;;29.10;97.50;;;;;;6182366;23;20044;-86
2021/06/18 11:17:48;;;;;;;12.68;6.88;;;29.10;96.90;;;;;;6208082;23;20024;-86
2021/06/18 11:20:17;;;;;;;9.93;6.25;;;29.30;97.10;;;;;;6183155;23;20013;-85
2021/06/18 11:22:51;;;;;;;11.38;7.00;;;29.40;97.30;;;;;;6208022;23;20027;-85
2021/06/18 11:25:50;;;;;;;10.50;6.38;;;29.40;96.40;;;;;;6181975;23;20020;-86
2021/06/18 11:28:35;;;;;;;;;;;29.50;97.70;;;;;;6180834;23;20081;-85
2021/06/18 11:31:06;;;;;;;11.82;5.90;;;29.50;96.60;;;;;;6182937;23;20230;-85
2021/06/18 11:33:51;;;;;;;12.90;6.75;;;29.60;96.60;;;;;;6191532;23;20055;-86
2021/06/18 11:36:49;;;;;;;8.40;5.60;;;29.60;96.30;;;;;;6182959;23;20028;-85
2021/06/18 11:39:18;;;;;;;11.10;6.50;;;29.60;96.40;;;;;;6181825;23;20051;-84
2021/06/18 11:41:57;;;;;;;8.38;5.72;;;29.70;97.30;;;;;;6182400;23;20020;-87
2021/06/18 11:44:26;;;;;;;8.52;6.45;;;30.00;97.10;;;;;;6192774;23;20107;-85
2021/06/18 11:46:56;;;;;;;9.75;6.32;;;30.00;97.70;;;;;;6208667;23;20017;-85
2021/06/18 11:49:30;;;;;;;10.48;6.40;;;30.10;97.40;;;;;;6182920;23;20083;-86
2021/06/18 11:52:00;;;;;;;12.95;6.70;;;30.30;97.80;;;;;;6205424;23;20031;-84
2021/06/18 11:54:29;;;;;;;12.88;6.28;;;30.30;97.50;;;;;;6218967;23;20016;-87
2021/06/18 11:57:05;;;;;;;10.63;6.47;;;30.50;98.00;;;;;;6182458;23;20346;-85
2021/06/18 11:59:33;;;;;;;10.75;6.50;;;30.60;95.50;;;;;;6183510;23;20111;-84
2021/06/18 12:02:19;;;;;;;11.80;6.53;;;30.60;96.10;;;;;;6183248;23;20030;-84
2021/06/18 12:04:58;;;;;;;9.25;5.90;;;30.80;96.20;;;;;;6183452;23;20248;-83
2021/06/18 12:07:29;;;;;;;10.27;6.30;;;30.90;96.30;;;;;;6206828;23;20047;-86
2021/06/18 12:09:56;;;;;;;9.75;5.95;;;30.60;95.80;;;;;;6207554;23;20277;-86
2021/06/18 12:12:23;;;;;;;8.68;6.22;;;30.50;95.50;;;;;;6181500;23;20021;-85
2021/06/18 12:14:55;;;;;;;11.32;7.05;;;30.40;96.40;;;;;;6207593;23;20017;-85
2021/06/18 12:17:24;;;;;;;10.07;6.65;;;30.30;96.20;;;;;;6183650;23;20016;-83
2021/06/18 12:19:53;;;;;;;11.48;7.10;;;30.40;95.70;;;;;;6181612;23;20025;-83
2021/06/18 12:22:23;;;;;;;10.07;7.15;;;30.50;95.40;;;;;;6184159;23;20664;-86
2021/06/18 12:24:52;;;;;;;10.50;6.20;;;30.30;95.80;;;;;;6184355;23;20012;-85
2021/06/18 12:27:21;;;;;;;11.50;6.95;;;30.50;95.90;;;;;;6183554;23;20070;-86
2021/06/18 12:29:52;;;;;;;9.38;6.40;;;31.20;96.10;;;;;;6209069;23;20020;-84
2021/06/18 12:32:21;;;;;;;12.85;6.85;;;30.80;95.80;;;;;;6184474;23;20012;-86
2021/06/18 12:34:51;;;;;;;10.48;6.72;;;30.80;95.90;;;;;;6208306;23;20021;-86
2021/06/18 12:37:20;;;;;;;8.80;6.72;;;30.80;96.60;;;;;;6182918;23;20032;-87
2021/06/18 12:39:50;;;;;;;12.27;6.47;;;30.80;96.60;;;;;;6183982;23;20080;-84
2021/06/18 12:42:24;;;;;;;10.30;6.95;;;31.20;97.20;;;;;;6183455;23;20074;-86
2021/06/18 12:45:03;;;;;;;11.15;6.63;;;31.20;94.70;;;;;;6182162;23;20028;-84
2021/06/18 12:47:30;;;;;;;14.48;7.03;;;31.10;95.10;;;;;;6183265;23;20021;-86
2021/06/18 12:49:58;;;;;;;13.73;6.80;;;31.10;95.10;;;;;;6207037;23;20453;-84
2021/06/18 12:52:25;;;;;;;12.90;6.97;;;31.20;96.10;;;;;;6182541;23;20393;-83
2021/06/18 12:55:03;;;;;;;10.27;6.68;;;31.80;96.70;;;;;;6180803;23;20024;-82
2021/06/18 12:57:30;;;;;;;10.10;7.03;;;31.30;95.90;;;;;;6209331;23;20024;-86
2021/06/18 13:00:08;;;;;;;10.02;7.18;;;31.20;95.20;;;;;;6208680;23;20021;-86